createdAt,value
2022-08-22T00:00:00.305Z,17.6
2022-08-22T00:10:00.249Z,17.5
2022-08-22T00:20:00.243Z,17.5
2022-08-22T00:30:00.252Z,17.5
2022-08-22T00:40:03.288Z,17.5
2022-08-22T00:50:00.256Z,17.4
2022-08-22T01:00:00.325Z,17.4
2022-08-22T01:10:00.235Z,17.3
2022-08-22T01:20:00.227Z,17.3
2022-08-22T01:30:00.246Z,17.2
2022-08-22T01:40:00.340Z,17.2
2022-08-22T01:50:00.245Z,17.2
2022-08-22T02:00:00.290Z,17.1
2022-08-22T02:10:00.265Z,17.0
2022-08-22T02:20:00.281Z,17.0
2022-08-22T02:30:00.256Z,16.9
2022-08-22T02:40:00.322Z,16.9
2022-08-22T02:50:00.246Z,16.8
2022-08-22T03:00:00.316Z,16.7
2022-08-22T03:10:00.247Z,16.6
2022-08-22T03:20:00.269Z,16.6
2022-08-22T03:30:00.241Z,16.6
2022-08-22T03:40:00.354Z,16.5
2022-08-22T03:50:00.230Z,16.4
2022-08-22T04:00:00.309Z,16.3
2022-08-22T04:10:00.245Z,16.2
2022-08-22T04:20:00.246Z,16.0
2022-08-22T04:30:00.243Z,15.9
2022-08-22T04:40:00.331Z,15.8
2022-08-22T04:50:00.251Z,15.8
2022-08-22T05:00:00.299Z,15.8
2022-08-22T05:10:00.233Z,16.0
2022-08-22T05:20:00.249Z,16.4
2022-08-22T05:30:00.247Z,16.7
2022-08-22T05:40:00.386Z,16.9
2022-08-22T05:50:00.237Z,17.0
2022-08-22T06:00:00.295Z,17.2
2022-08-22T06:10:00.232Z,17.3
2022-08-22T06:20:00.245Z,17.4
2022-08-22T06:30:00.236Z,17.6
2022-08-22T06:40:00.353Z,17.6
2022-08-22T06:50:00.235Z,17.4
2022-08-22T07:00:00.304Z,17.1
2022-08-22T07:10:00.301Z,16.8
2022-08-22T07:20:00.215Z,16.7
2022-08-22T07:30:00.250Z,16.6
2022-08-22T07:40:00.310Z,16.6
2022-08-22T07:50:00.256Z,16.7
2022-08-22T08:00:00.316Z,16.8
2022-08-22T08:10:00.278Z,17.0
2022-08-22T08:20:00.230Z,17.2
2022-08-22T08:30:00.231Z,17.3
2022-08-22T08:40:00.345Z,17.6
2022-08-22T08:50:00.261Z,17.7
2022-08-22T09:00:00.301Z,18.0
2022-08-22T09:10:00.230Z,18.4
2022-08-22T09:20:00.222Z,18.9
2022-08-22T09:30:00.255Z,19.5
2022-08-22T09:40:00.329Z,20.2
2022-08-22T09:50:00.234Z,20.5
2022-08-22T10:00:00.292Z,20.9
2022-08-22T10:10:00.755Z,21.4
2022-08-22T10:20:00.677Z,21.7
2022-08-22T10:30:00.217Z,21.9
2022-08-22T10:40:00.392Z,22.0
2022-08-22T10:50:00.247Z,22.2
2022-08-22T11:00:00.421Z,22.3
2022-08-22T11:10:00.237Z,22.2
2022-08-22T11:20:00.255Z,22.3
2022-08-22T11:30:00.241Z,22.4
2022-08-22T11:40:00.397Z,22.3
2022-08-22T11:50:00.243Z,22.4
2022-08-22T12:00:00.409Z,22.3
2022-08-22T12:10:00.245Z,22.2
2022-08-22T12:20:15.348Z,22.0
2022-08-22T12:30:00.219Z,21.8
2022-08-22T12:40:00.331Z,21.6
2022-08-22T12:50:00.245Z,21.3
2022-08-22T13:00:00.297Z,21.2
2022-08-22T13:10:00.259Z,21.2
2022-08-22T13:20:00.236Z,21.2
2022-08-22T13:30:00.233Z,21.1
2022-08-22T13:40:00.502Z,21.0
2022-08-22T13:50:00.237Z,21.0
2022-08-22T14:00:06.073Z,20.8
2022-08-22T14:10:02.708Z,20.7
2022-08-22T14:20:01.672Z,20.7
2022-08-22T14:30:00.220Z,20.6
2022-08-22T14:40:00.249Z,20.5
2022-08-22T14:50:00.254Z,20.5
2022-08-22T15:00:00.321Z,20.4
2022-08-22T15:10:00.982Z,20.4
2022-08-22T15:20:00.430Z,20.3
2022-08-22T15:30:00.249Z,20.3
2022-08-22T15:40:00.283Z,20.2
2022-08-22T15:50:00.242Z,20.2
2022-08-22T16:00:00.226Z,20.2
2022-08-22T16:10:00.287Z,20.2
2022-08-22T16:20:00.307Z,20.2
2022-08-22T16:30:00.226Z,20.2
2022-08-22T16:40:00.385Z,20.2
2022-08-22T16:50:00.229Z,20.1
2022-08-22T17:00:00.236Z,20.0
2022-08-22T17:10:00.229Z,20.0
2022-08-22T17:20:00.279Z,19.9
2022-08-22T17:30:00.265Z,19.8
2022-08-22T17:40:00.577Z,19.8
2022-08-22T17:50:00.228Z,19.7
2022-08-22T18:00:00.241Z,19.7
2022-08-22T18:10:00.264Z,19.6
2022-08-22T18:20:00.302Z,19.4
2022-08-22T18:30:00.297Z,19.4
2022-08-22T18:40:00.355Z,19.2
2022-08-22T18:50:00.237Z,19.1
2022-08-22T19:00:00.290Z,19.0
2022-08-22T19:10:00.251Z,18.8
2022-08-22T19:20:00.251Z,18.7
2022-08-22T19:30:00.270Z,18.5
2022-08-22T19:40:00.375Z,18.3
2022-08-22T19:50:00.262Z,18.2
2022-08-22T20:00:00.426Z,18.0
2022-08-22T20:10:00.233Z,18.0
2022-08-22T20:20:19.224Z,17.9
2022-08-22T20:30:00.245Z,17.9
2022-08-22T20:40:00.348Z,17.9
2022-08-22T20:50:00.261Z,17.8
2022-08-22T21:00:00.319Z,17.8
2022-08-22T21:10:00.236Z,17.6
2022-08-22T21:20:00.245Z,17.5
2022-08-22T21:30:00.237Z,17.4
2022-08-22T21:40:00.348Z,17.3
2022-08-22T21:50:00.245Z,17.2
2022-08-22T22:00:00.372Z,17.1
2022-08-22T22:10:00.268Z,17.0
2022-08-22T22:20:00.239Z,17.0
2022-08-22T22:30:00.237Z,16.9
2022-08-22T22:40:00.331Z,16.8
2022-08-22T22:50:00.220Z,16.8
2022-08-22T23:00:00.250Z,16.7
2022-08-22T23:10:01.398Z,16.6
2022-08-22T23:20:00.236Z,16.5
2022-08-22T23:30:00.249Z,16.4
2022-08-22T23:40:00.372Z,16.3
2022-08-22T23:50:02.955Z,16.3
